Portada
METAR-TAF:

METAR-TAF

Aeroports :

Bobo-Dioulasso, Burkina Faso

latitud: 11-10N, longitud: 004-19W, altitud: 460 m

Observació

L'informe es va fer fa 1 hora i 13 minuts, a les 22:00 UTC
Vent 5 kt del Sud/Sud-Oest
Temperatura 27°C
Humitat 74%
Pressió 1015 hPa
Visibilitat 10 km o més
Escasses núvols a una alçada de 1600 ft

METAR: DFOO 132200Z 21005KT 9999 FEW016 27/22 Q1015 RETS

Hora: 23:13 (23:13 UTC)

Pronòstic

L'informe es va fer fa 6 hores i 13 minuts, a les 17:00 UTC
Pronòstic vàlid del 13 a les 18 UTC al 14 a les 18 UTC
Vent 8 kt del Sud/Sud-Oest
Visibilitat 10 km o més
Escasses núvols a una alçada de 1600 ft
Probabilitat 30% :
Temporalment
l' 13 a les 18 UTC al 13 a les 24 UTC
Visibilitat: 4000 m
Núvols disperses a una alçada de 1600 ft
Escasses núvols a una alçada de 3300 ft, Cumulonimbus.
tempesta, pluja,

TAF: DFOO 131700Z 1318/1418 20008KT 9999 FEW016 PROB30 TEMPO 1318/1324 4000 TSRA SCT016 FEW033CB

Observacions i pronòstics meteorològics de més de 4000 aeroports (METAR i TAF).

Les estacions disponibles són els punts grocs i vermells al mapa.

Posi el ratolí al punt desitjat per veure el nom de l'estació.

Feu clic per veure les observacions i els pronòstics meteorològics.

Per canviar el mapa: feu clic els botons verds amb una creu de color negre per apropar; al botó verd amb un guió per allunyar la imatge; o en les fletxes verdes per a mapes adjacents.


METAR-TAF: